Time;durP1;ratioP1;P1;durP2;ratioP2;P2;SDS_P1;SDS_P2;PMS_P1;PMS_P2;Temp;Humidity;BMP_temperature;BMP_pressure;BME280_temperature;BME280_humidity;BME280_pressure;Samples;Min_cycle;Max_cycle;Signal;HPM_P1;HPM_P2
2023/03/31 00:01:35;;;;;;;27.55;4.88;;;10.30;99.90;;;;;;5010403;28;20409;-77
2023/03/31 00:04:03;;;;;;;27.30;4.38;;;10.20;99.90;;;;;;4992011;28;20527;-77
2023/03/31 00:06:30;;;;;;;27.48;4.85;;;10.20;99.90;;;;;;5008413;28;20413;-77
2023/03/31 00:09:00;;;;;;;23.73;4.78;;;10.20;99.90;;;;;;5007944;28;20413;-76
2023/03/31 00:11:26;;;;;;;24.48;4.00;;;10.20;99.90;;;;;;5009042;28;20405;-76
2023/03/31 00:13:52;;;;;;;25.60;5.22;;;10.10;99.90;;;;;;5011718;28;20436;-76
2023/03/31 00:16:18;;;;;;;26.45;5.28;;;10.10;99.90;;;;;;4993440;28;20894;-76
2023/03/31 00:18:46;;;;;;;25.98;5.18;;;10.00;99.90;;;;;;5007893;28;20432;-76
2023/03/31 00:21:24;;;;;;;23.05;3.97;;;10.00;99.90;;;;;;5009015;28;20412;-77
2023/03/31 00:23:58;;;;;;;29.50;5.00;;;10.00;99.90;;;;;;5008468;28;20476;-76
2023/03/31 00:26:25;;;;;;;27.47;5.03;;;10.00;99.90;;;;;;5014114;28;20905;-76
2023/03/31 00:28:51;;;;;;;27.40;3.92;;;10.00;99.90;;;;;;5005964;28;20416;-77
2023/03/31 00:31:17;;;;;;;31.45;4.53;;;9.90;99.90;;;;;;5013711;28;20921;-76
2023/03/31 00:33:42;;;;;;;28.23;5.05;;;9.90;99.90;;;;;;5006349;28;20409;-77
2023/03/31 00:36:08;;;;;;;25.00;4.60;;;9.90;99.90;;;;;;5003992;28;20420;-76
2023/03/31 00:38:34;;;;;;;27.02;4.38;;;9.90;99.90;;;;;;5005448;28;20463;-76
2023/03/31 00:41:01;;;;;;;29.38;5.05;;;9.80;99.90;;;;;;5005901;28;20462;-76
2023/03/31 00:43:35;;;;;;;30.52;4.45;;;9.90;99.90;;;;;;5009593;28;20448;-76
2023/03/31 00:46:04;;;;;;;26.73;4.50;;;9.80;99.90;;;;;;5005294;28;20479;-76
2023/03/31 00:48:31;;;;;;;31.43;5.13;;;9.80;99.90;;;;;;5007263;28;20428;-76
2023/03/31 00:51:01;;;;;;;27.15;4.72;;;9.80;99.90;;;;;;5009825;28;20470;-76
2023/03/31 00:53:30;;;;;;;29.37;4.77;;;9.70;99.90;;;;;;4998026;28;20421;-76
2023/03/31 00:56:01;;;;;;;31.13;4.65;;;9.70;99.90;;;;;;5005688;28;20401;-75
2023/03/31 00:58:27;;;;;;;26.40;4.60;;;9.70;99.90;;;;;;5003924;28;20413;-75
2023/03/31 01:00:56;;;;;;;27.83;4.32;;;9.70;99.90;;;;;;5004460;28;20840;-75
2023/03/31 01:03:22;;;;;;;28.92;4.65;;;9.70;99.90;;;;;;5008361;28;20441;-75
2023/03/31 01:05:59;;;;;;;24.85;4.68;;;9.70;99.90;;;;;;4991064;28;20478;-77
2023/03/31 01:08:26;;;;;;;27.20;4.47;;;9.60;99.90;;;;;;5006336;28;20444;-77
2023/03/31 01:10:59;;;;;;;24.53;4.60;;;9.60;99.90;;;;;;5005287;28;20416;-77
2023/03/31 01:13:26;;;;;;;30.92;4.57;;;9.60;99.90;;;;;;5006418;28;20413;-76
2023/03/31 01:15:52;;;;;;;28.80;5.25;;;9.60;99.90;;;;;;5005538;28;20420;-76
2023/03/31 01:18:20;;;;;;;31.50;4.93;;;9.50;99.90;;;;;;5007133;28;20421;-76
2023/03/31 01:21:13;;;;;;;29.40;4.75;;;9.50;99.90;;;;;;5007243;28;20828;-76
2023/03/31 01:24:03;;;;;;;27.92;5.15;;;9.40;99.90;;;;;;4996312;28;20978;-76
2023/03/31 01:26:47;;;;;;;26.08;4.75;;;9.50;99.90;;;;;;5007579;28;20496;-76
2023/03/31 01:29:41;;;;;;;31.50;5.35;;;9.40;99.90;;;;;;5010137;28;20426;-76
2023/03/31 01:32:31;;;;;;;29.10;5.22;;;9.30;99.90;;;;;;5009617;28;20416;-76
2023/03/31 01:35:15;;;;;;;31.53;4.67;;;9.30;99.90;;;;;;5003721;28;20421;-76
2023/03/31 01:38:13;;;;;;;28.25;5.20;;;9.30;99.90;;;;;;5005750;28;20416;-76
2023/03/31 01:40:57;;;;;;;27.02;4.85;;;9.20;99.90;;;;;;5009634;28;20443;-76
2023/03/31 01:43:51;;;;;;;28.63;5.30;;;9.30;99.90;;;;;;5007096;28;20466;-76
2023/03/31 01:46:34;;;;;;;30.70;5.63;;;9.20;99.90;;;;;;4998697;28;20428;-76
2023/03/31 01:49:36;;;;;;;32.33;6.32;;;9.20;99.90;;;;;;5003120;28;20501;-76
2023/03/31 01:52:20;;;;;;;26.23;4.70;;;9.20;99.90;;;;;;5004966;28;20506;-76
2023/03/31 01:54:52;;;;;;;24.92;5.43;;;9.20;99.90;;;;;;5007798;28;21138;-76
2023/03/31 01:57:26;;;;;;;27.70;4.27;;;9.30;99.90;;;;;;5007318;28;20400;-76
2023/03/31 02:00:04;;;;;;;30.88;5.63;;;9.30;99.90;;;;;;5004484;28;20420;-76
2023/03/31 02:02:35;;;;;;;27.70;4.97;;;9.20;99.90;;;;;;5004766;28;20437;-76
2023/03/31 02:05:16;;;;;;;28.48;5.40;;;9.20;99.90;;;;;;5003797;28;20413;-75
2023/03/31 02:07:55;;;;;;;25.20;4.88;;;9.20;99.90;;;;;;5004615;28;20412;-76
2023/03/31 02:10:24;;;;;;;28.92;4.82;;;9.20;99.90;;;;;;5003343;28;20505;-76
2023/03/31 02:12:50;;;;;;;29.33;5.30;;;9.20;99.90;;;;;;5007120;28;20464;-76
2023/03/31 02:15:22;;;;;;;27.67;4.72;;;9.20;99.90;;;;;;4991037;28;20409;-77
2023/03/31 02:17:53;;;;;;;26.20;4.90;;;9.20;99.90;;;;;;4991030;28;20473;-76
2023/03/31 02:20:21;;;;;;;24.63;4.25;;;9.20;99.90;;;;;;5007950;28;20409;-76
2023/03/31 02:22:52;;;;;;;23.42;4.15;;;9.20;99.90;;;;;;5007329;28;20555;-76
2023/03/31 02:25:21;;;;;;;22.17;3.92;;;9.20;99.90;;;;;;5008244;28;20450;-76
2023/03/31 02:27:54;;;;;;;21.70;4.15;;;9.20;99.90;;;;;;5006864;28;20412;-76
2023/03/31 02:30:20;;;;;;;27.08;4.35;;;9.20;99.90;;;;;;5008076;28;20474;-76
2023/03/31 02:32:46;;;;;;;23.75;4.50;;;9.20;99.90;;;;;;5006527;28;20413;-76
2023/03/31 02:35:16;;;;;;;32.33;4.78;;;9.20;99.90;;;;;;5007158;28;20412;-76
2023/03/31 02:37:42;;;;;;;21.40;4.55;;;9.20;99.90;;;;;;5005762;28;20792;-76
2023/03/31 02:40:14;;;;;;;19.70;3.42;;;9.20;99.90;;;;;;5006735;28;20413;-76
2023/03/31 02:42:41;;;;;;;23.60;4.38;;;9.20;99.90;;;;;;4990059;28;20433;-76
2023/03/31 02:45:45;;;;;;;21.73;4.32;;;9.20;99.90;;;;;;4990198;28;20958;-76
2023/03/31 02:48:20;;;;;;;24.65;4.63;;;9.20;99.90;;;;;;5009739;28;20413;-76
2023/03/31 02:51:07;;;;;;;25.85;4.60;;;9.30;99.90;;;;;;5007297;28;20467;-76
2023/03/31 02:53:54;;;;;;;24.53;3.97;;;9.30;99.90;;;;;;5006460;28;20417;-76
2023/03/31 02:56:26;;;;;;;26.87;4.27;;;9.30;99.90;;;;;;5005957;28;20448;-76
2023/03/31 02:59:04;;;;;;;20.25;3.72;;;9.30;99.90;;;;;;5005830;28;20443;-76
2023/03/31 03:02:06;;;;;;;20.98;3.33;;;9.30;99.90;;;;;;5007310;28;20413;-76
2023/03/31 03:05:05;;;;;;;23.75;4.60;;;9.30;99.90;;;;;;5018104;28;20421;-76
2023/03/31 03:07:40;;;;;;;24.60;3.92;;;9.30;99.90;;;;;;5010515;28;20424;-76
2023/03/31 03:10:25;;;;;;;22.08;4.00;;;9.40;99.90;;;;;;5002823;28;20429;-75
2023/03/31 03:13:11;;;;;;;24.63;3.40;;;9.40;99.90;;;;;;5008052;28;20421;-77
2023/03/31 03:15:46;;;;;;;19.20;3.03;;;9.30;99.90;;;;;;5005767;28;20741;-76
2023/03/31 03:18:12;;;;;;;21.45;3.70;;;9.40;99.90;;;;;;5002831;28;20416;-76
2023/03/31 03:20:39;;;;;;;23.13;4.50;;;9.40;99.90;;;;;;5007259;28;20409;-77
2023/03/31 03:23:05;;;;;;;24.25;3.28;;;9.30;99.90;;;;;;5006758;28;20441;-76
2023/03/31 03:25:30;;;;;;;25.27;4.30;;;9.30;99.90;;;;;;5008405;28;20432;-76
2023/03/31 03:27:56;;;;;;;27.47;4.20;;;9.30;99.90;;;;;;5006946;28;20417;-76
2023/03/31 03:30:21;;;;;;;23.45;4.22;;;9.30;99.90;;;;;;5009108;28;20508;-76
2023/03/31 03:32:47;;;;;;;21.27;3.77;;;9.40;99.90;;;;;;5013680;28;20416;-75
2023/03/31 03:35:13;;;;;;;20.58;3.63;;;9.30;99.90;;;;;;5006692;28;20465;-77
2023/03/31 03:37:39;;;;;;;23.77;3.80;;;9.40;99.90;;;;;;5007237;28;20409;-76
2023/03/31 03:40:05;;;;;;;22.57;4.30;;;9.30;99.90;;;;;;5007426;28;20483;-76
2023/03/31 03:42:32;;;;;;;19.58;3.88;;;9.30;99.90;;;;;;5007343;28;20443;-76
2023/03/31 03:44:57;;;;;;;24.20;4.38;;;9.40;99.90;;;;;;5005611;28;20410;-76
2023/03/31 03:47:23;;;;;;;22.25;4.07;;;9.40;99.90;;;;;;5005811;28;20412;-75
2023/03/31 03:49:49;;;;;;;17.77;3.47;;;9.40;99.90;;;;;;5005788;28;20867;-76
2023/03/31 03:52:15;;;;;;;17.65;3.63;;;9.40;99.90;;;;;;5008344;28;20719;-76
2023/03/31 03:54:41;;;;;;;20.92;4.03;;;9.40;99.90;;;;;;5008246;28;20433;-76
2023/03/31 03:57:06;;;;;;;20.03;4.03;;;9.40;99.90;;;;;;5010149;28;20413;-77
2023/03/31 03:59:32;;;;;;;18.75;3.65;;;9.40;99.90;;;;;;5004890;28;20412;-76
2023/03/31 04:01:57;;;;;;;17.17;3.80;;;9.40;99.90;;;;;;5007379;28;20405;-76
2023/03/31 04:04:23;;;;;;;18.25;4.07;;;9.40;99.90;;;;;;5005339;28;20435;-76
2023/03/31 04:06:49;;;;;;;18.53;4.00;;;9.30;99.90;;;;;;5004344;28;20838;-76
2023/03/31 04:09:15;;;;;;;19.10;3.85;;;9.30;99.90;;;;;;5007384;28;20409;-77
2023/03/31 04:11:40;;;;;;;19.98;4.15;;;9.30;99.90;;;;;;5002294;28;20784;-76
2023/03/31 04:14:06;;;;;;;16.57;3.87;;;9.30;99.90;;;;;;5003457;28;20421;-75
2023/03/31 04:16:33;;;;;;;15.27;3.20;;;9.30;99.90;;;;;;5008054;28;20405;-76
2023/03/31 04:19:02;;;;;;;19.23;3.77;;;9.30;99.90;;;;;;5007821;28;20451;-76
2023/03/31 04:21:29;;;;;;;17.48;3.53;;;9.20;99.90;;;;;;5003856;28;20449;-76
2023/03/31 04:24:00;;;;;;;18.20;3.90;;;9.30;99.90;;;;;;5008508;28;20533;-77
2023/03/31 04:26:41;;;;;;;17.77;4.03;;;9.30;99.90;;;;;;5002079;28;20504;-76
2023/03/31 04:29:08;;;;;;;16.83;3.23;;;9.30;99.90;;;;;;5011658;28;20417;-77
2023/03/31 04:31:37;;;;;;;17.23;3.97;;;9.30;99.90;;;;;;5010411;28;20415;-77
2023/03/31 04:34:05;;;;;;;16.00;3.50;;;9.30;99.90;;;;;;5009857;28;20423;-76
2023/03/31 04:36:34;;;;;;;16.23;3.83;;;9.30;99.90;;;;;;5009101;28;20417;-76
2023/03/31 04:39:00;;;;;;;18.75;3.80;;;9.40;99.90;;;;;;5013266;28;20411;-76
2023/03/31 04:41:28;;;;;;;17.40;4.10;;;9.40;99.90;;;;;;5054581;28;20409;-77
2023/03/31 04:43:54;;;;;;;16.95;4.30;;;9.40;99.90;;;;;;5009487;28;20443;-77
2023/03/31 04:46:20;;;;;;;15.32;4.07;;;9.50;99.90;;;;;;5005309;28;20405;-77
2023/03/31 04:48:47;;;;;;;14.20;4.32;;;9.50;99.90;;;;;;5007241;28;20411;-77
2023/03/31 04:51:14;;;;;;;15.80;4.72;;;9.50;99.90;;;;;;5008002;28;20754;-77
2023/03/31 04:53:40;;;;;;;17.85;5.18;;;9.50;99.90;;;;;;5010033;28;20486;-77
2023/03/31 04:56:06;;;;;;;14.38;4.80;;;9.50;99.90;;;;;;5007762;28;20488;-77
2023/03/31 04:58:32;;;;;;;15.30;5.45;;;9.60;99.90;;;;;;5010398;28;20435;-77
2023/03/31 05:00:58;;;;;;;17.92;5.30;;;9.60;99.90;;;;;;5007953;28;20405;-77
2023/03/31 05:03:23;;;;;;;15.98;5.82;;;9.60;99.90;;;;;;5010833;28;20445;-77
2023/03/31 05:05:49;;;;;;;19.43;6.07;;;9.60;99.90;;;;;;5008337;28;20409;-77
2023/03/31 05:08:15;;;;;;;20.20;6.13;;;9.60;99.90;;;;;;5008455;28;20416;-77
2023/03/31 05:10:40;;;;;;;20.07;6.50;;;9.60;99.90;;;;;;5004581;28;20506;-77
2023/03/31 05:13:08;;;;;;;20.00;6.47;;;9.60;99.90;;;;;;5004565;28;20474;-78
2023/03/31 05:15:37;;;;;;;21.55;6.93;;;9.60;99.90;;;;;;5004409;28;20927;-77
2023/03/31 05:18:03;;;;;;;18.88;6.35;;;9.60;99.90;;;;;;5004516;28;20401;-77
2023/03/31 05:20:28;;;;;;;17.65;6.55;;;9.60;99.90;;;;;;5005970;28;20470;-76
2023/03/31 05:22:54;;;;;;;21.07;6.87;;;9.60;99.90;;;;;;4987357;28;20472;-77
2023/03/31 05:25:21;;;;;;;18.42;6.55;;;9.60;99.90;;;;;;5005959;28;20494;-77
2023/03/31 05:27:47;;;;;;;17.95;6.20;;;9.70;99.90;;;;;;5005843;28;20417;-77
2023/03/31 05:30:14;;;;;;;17.15;5.90;;;9.70;99.90;;;;;;5005888;28;20481;-78
2023/03/31 05:32:39;;;;;;;19.03;6.30;;;9.70;99.90;;;;;;5004562;28;20827;-77
2023/03/31 05:35:06;;;;;;;17.50;6.10;;;9.70;99.90;;;;;;5009936;28;20432;-77
2023/03/31 05:37:32;;;;;;;18.52;6.50;;;9.70;99.90;;;;;;5004888;28;20409;-78
2023/03/31 05:39:58;;;;;;;15.57;6.27;;;9.70;99.90;;;;;;5051884;28;20407;-78
2023/03/31 05:42:23;;;;;;;17.17;6.53;;;9.70;99.90;;;;;;5003770;28;20441;-78
2023/03/31 05:44:49;;;;;;;17.48;6.47;;;9.70;99.90;;;;;;5006166;28;20412;-77
2023/03/31 05:47:15;;;;;;;18.70;7.03;;;9.70;99.90;;;;;;5011152;28;20400;-77
2023/03/31 05:49:41;;;;;;;20.80;6.50;;;9.70;99.90;;;;;;5009417;28;21002;-76
2023/03/31 05:52:08;;;;;;;19.15;6.80;;;9.70;99.90;;;;;;4994935;28;20807;-77
2023/03/31 05:54:34;;;;;;;16.83;6.93;;;9.70;99.90;;;;;;5010719;28;20467;-77
2023/03/31 05:56:59;;;;;;;19.17;6.87;;;9.70;99.90;;;;;;5013405;28;20945;-78
2023/03/31 05:59:25;;;;;;;21.58;7.35;;;9.70;99.90;;;;;;5011186;28;20771;-77
2023/03/31 06:01:51;;;;;;;20.73;7.43;;;9.70;99.90;;;;;;5013902;28;20403;-77
2023/03/31 06:04:16;;;;;;;19.77;7.10;;;9.70;99.90;;;;;;5011593;28;20429;-77
2023/03/31 06:06:43;;;;;;;21.15;6.35;;;9.70;99.90;;;;;;5007932;28;20409;-77
2023/03/31 06:09:11;;;;;;;21.58;7.30;;;9.70;99.90;;;;;;5007882;28;20436;-77
2023/03/31 06:11:37;;;;;;;22.02;7.40;;;9.70;99.90;;;;;;5013345;28;20423;-77
2023/03/31 06:14:03;;;;;;;19.52;6.85;;;9.70;99.90;;;;;;5008736;28;20820;-77
2023/03/31 06:16:29;;;;;;;18.95;7.00;;;9.70;99.90;;;;;;5014475;28;20422;-78
2023/03/31 06:18:55;;;;;;;18.25;6.60;;;9.70;99.90;;;;;;5011226;28;20413;-77
2023/03/31 06:21:21;;;;;;;20.20;7.00;;;9.70;99.90;;;;;;5015666;28;20906;-77
2023/03/31 06:23:47;;;;;;;18.73;6.63;;;9.70;99.90;;;;;;5011031;28;20501;-77
2023/03/31 06:26:17;;;;;;;18.10;6.78;;;9.70;99.90;;;;;;5015905;28;20502;-77
2023/03/31 06:28:44;;;;;;;21.98;7.38;;;9.70;99.90;;;;;;5013229;28;21140;-77
2023/03/31 06:31:12;;;;;;;19.08;6.85;;;9.80;99.90;;;;;;5016190;28;20451;-78
2023/03/31 06:33:40;;;;;;;17.70;6.63;;;9.80;99.90;;;;;;5013177;28;20432;-77
2023/03/31 06:36:07;;;;;;;17.98;7.05;;;9.80;99.90;;;;;;5016497;28;20808;-77
2023/03/31 06:38:34;;;;;;;18.17;6.50;;;9.80;99.90;;;;;;4995702;28;20405;-78
2023/03/31 06:41:00;;;;;;;15.60;6.28;;;9.80;99.90;;;;;;5015788;28;20544;-77
2023/03/31 06:43:26;;;;;;;16.40;6.30;;;9.80;99.90;;;;;;5011653;28;20892;-77
2023/03/31 06:45:52;;;;;;;15.77;5.90;;;9.90;99.90;;;;;;4991172;28;21644;-77
2023/03/31 06:48:18;;;;;;;16.95;6.18;;;9.90;99.90;;;;;;5006213;28;20426;-77
2023/03/31 06:50:44;;;;;;;13.25;5.15;;;9.80;99.90;;;;;;5006035;28;20421;-77
2023/03/31 06:53:10;;;;;;;11.57;4.77;;;9.90;99.90;;;;;;5006455;28;20409;-77
2023/03/31 06:55:36;;;;;;;12.75;4.95;;;9.90;99.90;;;;;;5006586;28;20409;-78
2023/03/31 06:58:02;;;;;;;15.68;5.35;;;9.90;99.90;;;;;;5007958;28;20477;-78
2023/03/31 07:00:28;;;;;;;17.17;5.40;;;9.90;99.90;;;;;;5006761;28;20420;-77
2023/03/31 07:02:54;;;;;;;16.15;5.30;;;9.90;99.90;;;;;;5007591;28;20429;-77
2023/03/31 07:05:25;;;;;;;16.83;5.70;;;9.90;99.90;;;;;;5006396;28;20421;-77
2023/03/31 07:07:52;;;;;;;16.48;5.93;;;9.90;99.90;;;;;;5006692;28;20948;-78
2023/03/31 07:10:18;;;;;;;16.58;6.18;;;9.90;99.90;;;;;;4990198;28;20956;-78
2023/03/31 07:12:44;;;;;;;16.13;6.38;;;9.90;99.90;;;;;;5007378;28;20421;-77
2023/03/31 07:15:10;;;;;;;15.87;5.93;;;10.00;99.90;;;;;;5005613;28;20791;-77
2023/03/31 07:17:36;;;;;;;16.17;6.63;;;10.00;99.90;;;;;;5007065;28;20409;-78
2023/03/31 07:20:08;;;;;;;15.45;6.20;;;10.00;99.90;;;;;;5006908;28;20864;-77
2023/03/31 07:22:34;;;;;;;13.05;6.25;;;10.00;99.90;;;;;;4989605;28;20444;-77
2023/03/31 07:24:59;;;;;;;17.35;6.72;;;10.10;99.90;;;;;;5006908;28;20417;-77
2023/03/31 07:27:25;;;;;;;15.47;6.07;;;10.10;99.90;;;;;;5005861;28;21007;-77
2023/03/31 07:29:51;;;;;;;15.52;5.80;;;10.10;99.90;;;;;;4990031;28;20432;-77
2023/03/31 07:32:17;;;;;;;13.25;5.68;;;10.10;99.90;;;;;;5009159;28;20427;-77
2023/03/31 07:34:43;;;;;;;10.88;5.40;;;10.10;99.90;;;;;;5007819;28;20432;-75
2023/03/31 07:37:08;;;;;;;14.87;6.00;;;10.10;99.90;;;;;;4989340;28;20413;-75
2023/03/31 07:39:35;;;;;;;14.75;6.65;;;10.10;99.90;;;;;;5006166;28;20413;-75
2023/03/31 07:42:01;;;;;;;15.57;6.05;;;10.10;99.90;;;;;;5006494;28;20411;-76
2023/03/31 07:44:27;;;;;;;15.93;6.37;;;10.10;99.90;;;;;;5006069;28;20443;-76
2023/03/31 07:46:52;;;;;;;13.77;5.97;;;10.10;99.90;;;;;;5011133;28;20413;-77
2023/03/31 07:49:18;;;;;;;11.80;6.10;;;10.20;99.90;;;;;;5009206;28;21147;-76
2023/03/31 07:51:43;;;;;;;11.75;5.95;;;10.20;99.90;;;;;;4993500;28;20522;-76
2023/03/31 07:54:09;;;;;;;14.17;6.10;;;10.20;99.90;;;;;;5008195;28;20431;-76
2023/03/31 07:56:35;;;;;;;11.73;6.00;;;10.30;99.90;;;;;;5009648;28;20417;-76
2023/03/31 07:59:00;;;;;;;13.40;5.90;;;10.30;99.90;;;;;;5007860;28;20409;-76
2023/03/31 08:01:28;;;;;;;12.45;5.53;;;10.30;99.90;;;;;;5007806;28;20938;-76
2023/03/31 08:03:54;;;;;;;13.40;6.03;;;10.30;99.90;;;;;;5007537;28;20436;-76
2023/03/31 08:06:23;;;;;;;16.10;5.93;;;10.30;99.90;;;;;;5009771;28;20409;-76
2023/03/31 08:08:49;;;;;;;11.15;6.10;;;10.30;99.90;;;;;;5006867;28;20513;-76
2023/03/31 08:11:16;;;;;;;15.05;6.18;;;10.30;99.90;;;;;;5010239;28;20448;-76
2023/03/31 08:13:42;;;;;;;12.43;5.63;;;10.40;99.90;;;;;;4991200;28;20437;-76
2023/03/31 08:16:07;;;;;;;13.73;6.03;;;10.40;99.90;;;;;;5009727;28;20867;-77
2023/03/31 08:18:33;;;;;;;15.32;6.30;;;10.40;99.90;;;;;;5010052;28;20401;-77
2023/03/31 08:20:59;;;;;;;13.30;6.20;;;10.40;99.90;;;;;;5011938;28;20403;-77
2023/03/31 08:23:25;;;;;;;14.65;5.95;;;10.40;99.90;;;;;;4993318;28;20441;-76
2023/03/31 08:25:50;;;;;;;15.82;6.03;;;10.40;99.90;;;;;;5012385;28;20494;-76
2023/03/31 08:28:16;;;;;;;17.73;6.20;;;10.40;99.90;;;;;;5015236;28;21170;-76
2023/03/31 08:30:42;;;;;;;12.45;5.53;;;10.40;99.90;;;;;;5013298;28;20498;-76
2023/03/31 08:33:08;;;;;;;12.80;5.22;;;10.40;99.90;;;;;;5013014;28;20439;-76
2023/03/31 08:35:35;;;;;;;13.18;5.22;;;10.40;99.90;;;;;;5008713;28;20397;-76
2023/03/31 08:38:00;;;;;;;13.07;5.10;;;10.40;99.90;;;;;;5013308;28;20471;-76
2023/03/31 08:40:28;;;;;;;11.00;5.20;;;10.40;99.90;;;;;;4991228;28;20941;-76
2023/03/31 08:43:24;;;;;;;10.40;5.20;;;10.40;99.90;;;;;;5005977;28;20489;-76
2023/03/31 08:45:50;;;;;;;12.00;5.40;;;10.40;99.90;;;;;;5004169;28;20408;-76
2023/03/31 08:48:28;;;;;;;11.18;5.38;;;10.40;99.90;;;;;;5005713;28;20442;-76
2023/03/31 08:51:06;;;;;;;11.43;5.57;;;10.40;99.90;;;;;;5005112;28;20416;-77
2023/03/31 08:53:38;;;;;;;12.32;6.00;;;10.40;99.90;;;;;;5004625;28;20416;-76
2023/03/31 08:56:11;;;;;;;15.10;5.97;;;10.40;99.90;;;;;;5007933;28;20990;-76
2023/03/31 08:58:46;;;;;;;12.23;5.82;;;10.40;99.90;;;;;;5005524;28;20409;-76
2023/03/31 09:01:33;;;;;;;12.63;5.88;;;10.40;99.90;;;;;;5006403;28;20432;-76
2023/03/31 09:04:50;;;;;;;11.43;5.60;;;10.40;99.90;;;;;;5011742;28;20528;-76
2023/03/31 09:07:33;;;;;;;11.57;5.72;;;10.40;99.90;;;;;;5040530;28;20526;-76
2023/03/31 09:10:17;;;;;;;13.40;5.57;;;10.40;99.90;;;;;;5065426;28;20434;-77
2023/03/31 09:12:42;;;;;;;11.50;5.93;;;10.40;99.90;;;;;;5014878;28;20462;-77
2023/03/31 09:15:21;;;;;;;12.75;6.20;;;10.40;99.90;;;;;;5004389;28;20409;-76
2023/03/31 09:17:50;;;;;;;11.03;5.77;;;10.40;99.90;;;;;;5004370;28;20935;-77
2023/03/31 09:20:21;;;;;;;12.73;5.70;;;10.50;99.90;;;;;;5004156;28;20448;-77
2023/03/31 09:22:54;;;;;;;13.32;5.70;;;10.50;99.90;;;;;;5007097;28;21233;-76
2023/03/31 09:25:25;;;;;;;11.30;5.50;;;10.60;99.90;;;;;;5004333;28;20409;-77
2023/03/31 09:27:53;;;;;;;13.13;5.80;;;10.60;99.90;;;;;;4985138;28;20420;-76
2023/03/31 09:30:26;;;;;;;12.15;5.95;;;10.60;99.90;;;;;;5004128;28;20417;-77
2023/03/31 09:33:11;;;;;;;12.40;5.47;;;10.60;99.90;;;;;;5005374;28;20413;-77
2023/03/31 09:35:37;;;;;;;12.25;5.55;;;10.60;99.90;;;;;;5005448;28;20408;-77
2023/03/31 09:38:03;;;;;;;14.07;5.85;;;10.60;99.90;;;;;;5005423;28;20535;-76
2023/03/31 09:40:29;;;;;;;12.60;5.63;;;10.70;99.90;;;;;;5003912;28;20440;-76
2023/03/31 09:43:40;;;;;;;11.68;5.57;;;10.70;99.90;;;;;;4996396;28;21305;-76
2023/03/31 09:46:20;;;;;;;12.80;5.30;;;10.70;99.90;;;;;;4995208;28;20421;-77
2023/03/31 09:48:54;;;;;;;12.82;5.75;;;10.70;99.90;;;;;;5005219;28;20455;-77
2023/03/31 09:51:26;;;;;;;12.83;5.33;;;10.70;99.90;;;;;;5003431;28;20421;-77
2023/03/31 09:54:14;;;;;;;17.02;5.68;;;10.80;99.90;;;;;;5005670;28;20411;-77
2023/03/31 09:56:47;;;;;;;14.85;5.63;;;10.80;99.90;;;;;;5007508;28;20409;-77
2023/03/31 09:59:29;;;;;;;12.85;5.07;;;10.80;99.90;;;;;;5004647;28;20441;-77
2023/03/31 10:01:58;;;;;;;15.98;5.30;;;10.80;99.90;;;;;;5005096;28;20405;-78
2023/03/31 10:04:31;;;;;;;13.38;5.05;;;10.90;99.90;;;;;;5008484;28;20513;-77
2023/03/31 10:06:58;;;;;;;12.90;5.55;;;10.90;99.90;;;;;;5007105;28;20445;-77
2023/03/31 10:09:29;;;;;;;11.73;4.72;;;10.90;99.90;;;;;;5008343;28;20413;-77
2023/03/31 10:12:05;;;;;;;12.07;4.93;;;10.90;99.90;;;;;;4988548;28;20409;-77
2023/03/31 10:14:44;;;;;;;11.45;4.78;;;10.90;99.90;;;;;;5007823;28;20418;-78
2023/03/31 10:17:15;;;;;;;13.48;5.00;;;10.90;99.90;;;;;;5008716;28;20832;-78
2023/03/31 10:19:48;;;;;;;10.73;4.60;;;10.90;99.90;;;;;;5007232;28;20636;-76
2023/03/31 10:22:21;;;;;;;12.95;4.72;;;10.90;99.90;;;;;;5008677;28;20504;-75
2023/03/31 10:24:49;;;;;;;15.27;5.63;;;10.90;99.90;;;;;;5007327;28;20417;-78
2023/03/31 10:27:23;;;;;;;9.73;4.70;;;11.00;99.90;;;;;;5003553;28;20409;-78
2023/03/31 10:30:00;;;;;;;13.23;4.80;;;11.00;99.90;;;;;;5003470;28;20992;-78
2023/03/31 10:32:30;;;;;;;12.60;4.93;;;11.00;99.90;;;;;;5007719;28;20418;-78
2023/03/31 10:34:58;;;;;;;13.85;4.63;;;11.00;99.90;;;;;;5006266;28;20413;-78
2023/03/31 10:37:27;;;;;;;12.40;4.68;;;11.10;99.90;;;;;;4999359;28;20969;-78
2023/03/31 10:40:11;;;;;;;9.98;4.38;;;11.10;99.90;;;;;;5007048;28;21016;-78
2023/03/31 10:42:37;;;;;;;12.75;4.43;;;11.20;99.90;;;;;;5003751;28;20413;-78
2023/03/31 10:45:26;;;;;;;11.93;4.27;;;11.30;99.90;;;;;;5005989;28;20754;-77
2023/03/31 10:47:54;;;;;;;12.35;4.55;;;11.30;99.90;;;;;;5008651;28;20422;-76
2023/03/31 10:50:27;;;;;;;10.73;4.38;;;11.30;99.90;;;;;;5009828;28;20484;-76
2023/03/31 10:53:04;;;;;;;12.35;4.97;;;11.40;99.90;;;;;;5007642;28;20417;-76
2023/03/31 10:55:49;;;;;;;13.10;4.40;;;11.50;99.90;;;;;;4987770;28;20474;-76
2023/03/31 10:58:54;;;;;;;11.73;4.70;;;11.50;99.90;;;;;;5010209;28;21002;-76
2023/03/31 11:01:22;;;;;;;12.63;4.03;;;11.50;99.90;;;;;;5050886;28;20813;-76
2023/03/31 11:04:15;;;;;;;9.57;3.70;;;11.60;99.90;;;;;;5007389;28;21105;-76
2023/03/31 11:07:03;;;;;;;9.00;3.70;;;11.60;99.90;;;;;;5008129;28;20423;-76
2023/03/31 11:09:34;;;;;;;7.30;3.22;;;11.60;99.90;;;;;;5010305;28;20420;-76
2023/03/31 11:12:51;;;;;;;9.02;3.33;;;11.60;99.90;;;;;;5009622;28;20776;-76
2023/03/31 11:15:20;;;;;;;7.55;2.83;;;11.60;99.90;;;;;;5039114;28;20425;-76
2023/03/31 11:18:16;;;;;;;5.22;2.22;;;11.60;99.90;;;;;;5005711;28;20959;-76
2023/03/31 11:20:51;;;;;;;7.63;2.03;;;11.50;99.90;;;;;;4989272;28;20417;-76
2023/03/31 11:23:31;;;;;;;8.02;2.30;;;11.30;99.90;;;;;;5009323;28;20516;-76
2023/03/31 11:26:03;;;;;;;7.32;2.53;;;11.30;99.90;;;;;;5009573;28;20423;-76
2023/03/31 11:28:51;;;;;;;7.75;2.60;;;11.20;99.90;;;;;;4997797;28;20425;-76
2023/03/31 11:31:29;;;;;;;12.37;3.23;;;11.20;99.90;;;;;;5007624;28;20965;-76
2023/03/31 11:34:15;;;;;;;10.30;3.25;;;11.30;99.90;;;;;;5012692;28;20417;-76
2023/03/31 11:37:06;;;;;;;13.10;3.80;;;11.30;99.90;;;;;;5002789;28;20417;-76
2023/03/31 11:40:06;;;;;;;6.85;2.85;;;11.40;99.90;;;;;;5004493;28;20424;-75
2023/03/31 11:42:54;;;;;;;8.52;2.80;;;11.50;99.90;;;;;;5004993;28;20445;-76
2023/03/31 11:45:45;;;;;;;6.87;2.73;;;11.60;99.90;;;;;;5007127;28;20424;-75
2023/03/31 11:48:38;;;;;;;9.13;3.00;;;11.70;99.90;;;;;;5007676;28;20499;-76
2023/03/31 11:51:10;;;;;;;6.47;2.35;;;11.90;99.90;;;;;;4998504;28;20537;-76
2023/03/31 11:53:39;;;;;;;8.27;2.60;;;12.00;99.90;;;;;;5009650;28;20903;-76
2023/03/31 11:56:08;;;;;;;6.82;2.72;;;12.10;99.90;;;;;;5006296;28;20916;-76
2023/03/31 11:58:39;;;;;;;5.82;1.90;;;12.20;99.90;;;;;;5045938;28;20532;-76
2023/03/31 12:01:24;;;;;;;6.90;2.40;;;12.40;99.90;;;;;;5004715;28;20939;-78
2023/03/31 12:04:03;;;;;;;8.33;2.57;;;12.50;99.90;;;;;;5007805;28;20433;-76
2023/03/31 12:06:34;;;;;;;7.07;2.10;;;12.60;99.90;;;;;;5008071;28;20426;-76
2023/03/31 12:09:22;;;;;;;7.82;2.17;;;12.70;99.90;;;;;;4991862;28;20854;-76
2023/03/31 12:11:58;;;;;;;7.68;2.30;;;12.80;99.90;;;;;;5007325;28;20431;-76
2023/03/31 12:14:49;;;;;;;8.35;2.40;;;13.00;99.90;;;;;;5009952;28;20504;-76
2023/03/31 12:17:21;;;;;;;6.03;2.00;;;13.10;99.90;;;;;;5001317;28;20421;-76
2023/03/31 12:19:58;;;;;;;7.80;2.08;;;13.10;99.90;;;;;;4988967;28;21046;-78
2023/03/31 12:22:28;;;;;;;8.32;2.10;;;13.20;99.90;;;;;;5009676;28;20482;-78
2023/03/31 12:24:54;;;;;;;7.00;1.95;;;13.30;99.90;;;;;;5005823;28;20470;-78
2023/03/31 12:27:28;;;;;;;6.10;2.17;;;13.30;99.90;;;;;;5010445;28;20413;-75
2023/03/31 12:29:58;;;;;;;7.40;1.88;;;13.30;99.90;;;;;;5009431;28;20412;-75
2023/03/31 12:32:28;;;;;;;6.38;1.75;;;13.20;99.90;;;;;;5013023;28;20411;-75
2023/03/31 12:35:23;;;;;;;6.90;1.60;;;13.20;99.90;;;;;;5009730;28;20404;-78
2023/03/31 12:38:13;;;;;;;9.10;2.20;;;13.20;99.90;;;;;;5036268;28;20772;-78
2023/03/31 12:40:53;;;;;;;7.57;1.93;;;13.00;99.90;;;;;;4998032;28;20416;-78
2023/03/31 12:43:59;;;;;;;7.65;1.88;;;12.90;99.90;;;;;;4998862;28;20516;-78
2023/03/31 12:46:44;;;;;;;6.88;1.67;;;12.80;99.90;;;;;;4999599;28;20420;-78
2023/03/31 12:49:44;;;;;;;3.85;1.05;;;12.70;99.90;;;;;;5005915;28;20417;-78
2023/03/31 12:52:37;;;;;;;5.13;1.30;;;12.70;99.90;;;;;;5006144;28;20428;-78
2023/03/31 12:55:41;;;;;;;6.72;1.88;;;12.70;99.90;;;;;;5007719;28;20488;-78
2023/03/31 12:58:32;;;;;;;8.65;1.70;;;12.70;99.90;;;;;;5007143;28;20963;-78
2023/03/31 13:01:18;;;;;;;5.47;1.60;;;12.80;99.90;;;;;;4998114;28;20940;-78
2023/03/31 13:04:21;;;;;;;8.02;2.10;;;12.90;99.90;;;;;;5033224;28;20443;-78
2023/03/31 13:06:55;;;;;;;6.60;1.88;;;13.00;99.90;;;;;;4994463;28;21008;-78
2023/03/31 13:09:21;;;;;;;7.20;1.80;;;12.90;99.90;;;;;;4989732;28;20409;-78
2023/03/31 13:11:47;;;;;;;6.33;1.93;;;12.90;99.90;;;;;;5008544;28;20409;-77